Dades meteomassalio
Diari Summary for Octubre 11, 2017 Units:  Metric    English   Both
« Previous Day
Next Day »
Diari Semanal Mensual Anual Personalitzat
  Maxima: Minima: Mijana:
Temperatura: -17.8 °C -15 °C -10.1 °C
Rosada: -17.8 °C -17.6 °C -13.8 °C
Humitat: Humidity % 35 % 67 %
Velocitat del vent: 0 km/h 0 km/h 3.5 km/h
Racha vent: 0 km/h - -
Vent:- - West
Pressio: 0 hPa 34611.7 hPa -
Pluja: 0 mm    
Historical Graphs
 
 
Tabular Data for Octubre 11, 2017
Time Temperature Dew Point Pressure Wind Wind Speed Wind Gust Humidity Rainfall Rate (Hourly) solar Conditions
-17.8 °C -17.8 °C 0 hPa Calm     Humidity % 0 mm SolarRadiationWatts/m^2 W/m2 Conditions
00:02 -13.2 °C -17.6 °C 34669.3 hPa Calm     57 % 0 mm 0.0 W/m2 CLR
00:07 -13.2 °C -17.6 °C 34669.3 hPa Calm     57 % 0 mm 0.0 W/m2 CLR
00:17 -13.2 °C -17.3 °C 34669.3 hPa Calm     59 % 0 mm 0.0 W/m2 CLR
00:22 -12.8 °C -16.9 °C 34669.3 hPa Calm     60 % 0 mm 0.0 W/m2 CLR
00:27 -12.8 °C -16.8 °C 34669.3 hPa Calm     61 % 0 mm 0.0 W/m2 CLR
00:32 -13.2 °C -17.2 °C 34669.3 hPa Calm     60 % 0 mm 0.0 W/m2 CLR
00:37 -13.2 °C -17.1 °C 34669.3 hPa Calm     61 % 0 mm 0.0 W/m2 CLR
00:42 -13.2 °C -17.1 °C 34669.3 hPa Calm     61 % 0 mm 0.0 W/m2 CLR
00:47 -13.2 °C -17 °C 34669.3 hPa Calm     62 % 0 mm 0.0 W/m2 CLR
00:52 -13.4 °C -17.3 °C 34669.3 hPa Calm     62 % 0 mm 0.0 W/m2 CLR
00:57 -13.4 °C -17.1 °C 34669.3 hPa Calm     63 % 0 mm 0.0 W/m2 CLR
01:02 -13.8 °C -17.3 °C 34669.3 hPa Calm     64 % 0 mm 0.0 W/m2 CLR
01:07 -13.8 °C -17.2 °C 34669.3 hPa Calm     65 % 0 mm 0.0 W/m2 CLR
01:12 -13.8 °C -17.1 °C 34669.3 hPa Calm     66 % 0 mm 0.0 W/m2 CLR
01:17 -13.8 °C -17.1 °C 34669.3 hPa Calm     66 % 0 mm 0.0 W/m2 CLR
01:22 -13.8 °C -17.1 °C 34669.3 hPa Calm     66 % 0 mm 0.0 W/m2 CLR
01:27 -13.8 °C -16.9 °C 34669.3 hPa Calm     67 % 0 mm 0.0 W/m2 CLR
01:32 -13.8 °C -16.6 °C 34669.3 hPa Calm     70 % 0 mm 0.0 W/m2 CLR
01:37 -14.1 °C -16.9 °C 34669.3 hPa Calm     70 % 0 mm 0.0 W/m2 CLR
01:42 -14.1 °C -16.8 °C 34669.3 hPa Calm     71 % 0 mm 0.0 W/m2 CLR
01:47 -14.1 °C -16.8 °C 34669.3 hPa Calm     71 % 0 mm 0.0 W/m2 CLR
01:52 -14.1 °C -16.8 °C 34669.3 hPa Calm     71 % 0 mm 0.0 W/m2 CLR
01:57 -14.1 °C -16.8 °C 34669.3 hPa Calm     71 % 0 mm 0.0 W/m2 CLR
02:02 -14.1 °C -16.8 °C 34669.3 hPa Calm     71 % 0 mm 0.0 W/m2 CLR
02:07 -14.4 °C -17 °C 34669.3 hPa Calm     72 % 0 mm 0.0 W/m2 CLR
02:12 -14.4 °C -17.1 °C 34669.3 hPa Calm     71 % 0 mm 0.0 W/m2 CLR
02:17 -14.4 °C -16.8 °C 34669.3 hPa Calm     74 % 0 mm 0.0 W/m2 CLR
02:22 -14.4 °C -16.7 °C 34669.3 hPa Calm     75 % 0 mm 0.0 W/m2 CLR
02:27 -14.4 °C -16.6 °C 34669.3 hPa Calm     76 % 0 mm 0.0 W/m2 CLR
02:32 -14.4 °C -16.7 °C 34669.3 hPa Calm     75 % 0 mm 0.0 W/m2 CLR
02:37 -14.4 °C -16.7 °C 34669.3 hPa Calm     75 % 0 mm 0.0 W/m2 CLR
02:42 -14.4 °C -16.8 °C 34669.3 hPa Calm     74 % 0 mm 0.0 W/m2 CLR
02:47 -14.4 °C -16.6 °C 34682.8 hPa Calm     76 % 0 mm 0.0 W/m2 CLR
02:52 -14.4 °C -16.4 °C 34682.8 hPa Calm     77 % 0 mm 0.0 W/m2 CLR
02:57 -14.4 °C -16.4 °C 34682.8 hPa Calm     77 % 0 mm 0.0 W/m2 CLR
03:02 -14.4 °C -16.4 °C 34669.3 hPa Calm     77 % 0 mm 0.0 W/m2 CLR
03:07 -14.4 °C -16.6 °C 34682.8 hPa Calm     76 % 0 mm 0.0 W/m2 CLR
03:12 -14.4 °C -16.4 °C 34682.8 hPa Calm     77 % 0 mm 0.0 W/m2 CLR
03:17 -14.4 °C -16.4 °C 34682.8 hPa Calm     77 % 0 mm 0.0 W/m2 CLR
03:22 -14.4 °C -16.3 °C 34669.3 hPa Calm     79 % 0 mm 0.0 W/m2 CLR
03:27 -14.4 °C -16.3 °C 34669.3 hPa Calm     79 % 0 mm 0.0 W/m2 CLR
03:32 -14.4 °C -16.2 °C 34669.3 hPa Calm     80 % 0 mm 0.0 W/m2 CLR
03:37 -14.4 °C -16.1 °C 34669.3 hPa Calm     81 % 0 mm 0.0 W/m2 CLR
03:42 -14.4 °C -16.2 °C 34669.3 hPa Calm     80 % 0 mm 0.0 W/m2 CLR
03:47 -14.4 °C -16.3 °C 34669.3 hPa Calm     79 % 0 mm 0.0 W/m2 CLR
03:52 -14.4 °C -16.2 °C 34669.3 hPa Calm     80 % 0 mm 0.0 W/m2 CLR
03:57 -14.4 °C -16.1 °C 34669.3 hPa Calm     81 % 0 mm 0.0 W/m2 CLR
04:02 -14.4 °C -16.1 °C 34669.3 hPa Calm     81 % 0 mm 0.0 W/m2 CLR
04:12 -14.4 °C -16.1 °C 34669.3 hPa Calm     81 % 0 mm 0.0 W/m2 CLR
04:17 -14.4 °C -15.9 °C 34669.3 hPa Calm     82 % 0 mm 0.0 W/m2 CLR
04:18 -14.4 °C -15.9 °C 34669.3 hPa Calm     82 % 0 mm 0.0 W/m2 CLR
04:23 -14.1 °C -15.7 °C 34669.3 hPa Calm     82 % 0 mm 0.0 W/m2 CLR
04:28 -14.1 °C -15.7 °C 34669.3 hPa Calm     82 % 0 mm 0.0 W/m2 CLR
04:33 -13.8 °C -15.4 °C 34669.3 hPa Calm     82 % 0 mm 0.0 W/m2 CLR
04:38 -13.8 °C -15.4 °C 34659.1 hPa Calm     82 % 0 mm 0.0 W/m2 CLR
04:43 -13.8 °C -15.4 °C 34659.1 hPa Calm     82 % 0 mm 0.0 W/m2 CLR
04:48 -14.1 °C -15.6 °C 34659.1 hPa Calm     83 % 0 mm 0.0 W/m2 CLR
04:53 -14.1 °C -15.6 °C 34669.3 hPa Calm     83 % 0 mm 0.0 W/m2 CLR
04:58 -14.1 °C -15.6 °C 34659.1 hPa Calm     83 % 0 mm 0.0 W/m2 CLR
05:03 -14.4 °C -15.8 °C 34669.3 hPa Calm     84 % 0 mm 0.0 W/m2 CLR
05:08 -14.4 °C -15.7 °C 34669.3 hPa Calm     85 % 0 mm 0.0 W/m2 CLR
05:13 -14.4 °C -15.7 °C 34669.3 hPa Calm     85 % 0 mm 0.0 W/m2 CLR
05:18 -14.4 °C -15.6 °C 34669.3 hPa Calm     86 % 0 mm 0.0 W/m2 CLR
05:23 -14.4 °C -15.7 °C 34669.3 hPa Calm     85 % 0 mm 0.0 W/m2 CLR
05:24 -14.4 °C -15.7 °C 34669.3 hPa Calm     85 % 0 mm 0.0 W/m2 CLR
05:27 -14.4 °C -15.7 °C 34669.3 hPa Calm     85 % 0 mm 0.0 W/m2 CLR
05:32 -14.4 °C -15.7 °C 34669.3 hPa Calm     85 % 0 mm 0.0 W/m2 CLR
05:37 -14.4 °C -15.7 °C 34669.3 hPa Calm     85 % 0 mm 0.0 W/m2 CLR
05:42 -14.7 °C -16 °C 34669.3 hPa Calm     85 % 0 mm 0.0 W/m2 CLR
05:47 -14.7 °C -15.9 °C 34669.3 hPa Calm     86 % 0 mm 0.0 W/m2 CLR
05:52 -14.4 °C -15.6 °C 34669.3 hPa Calm     86 % 0 mm 0.0 W/m2 CLR
05:57 -14.4 °C -15.6 °C 34669.3 hPa Calm     86 % 0 mm 0.0 W/m2 CLR
06:02 -14.4 °C -15.6 °C 34669.3 hPa Calm     86 % 0 mm 0.0 W/m2 CLR
06:07 -14.4 °C -15.7 °C 34669.3 hPa Calm     85 % 0 mm 0.0 W/m2 CLR
06:12 -14.4 °C -15.7 °C 34669.3 hPa Calm     85 % 0 mm 0.0 W/m2 CLR
06:17 -14.4 °C -15.7 °C 34669.3 hPa Calm     85 % 0 mm 0.0 W/m2 CLR
06:22 -14.7 °C -15.9 °C 34669.3 hPa Calm     86 % 0 mm 0.0 W/m2 CLR
06:27 -14.7 °C -15.8 °C 34669.3 hPa Calm     87 % 0 mm 0.0 W/m2 CLR
06:32 -14.7 °C -15.8 °C 34669.3 hPa Calm     87 % 0 mm 0.0 W/m2 CLR
06:37 -14.7 °C -15.8 °C 34669.3 hPa Calm     87 % 0 mm 0.0 W/m2 CLR
06:47 -14.7 °C -15.9 °C 34669.3 hPa Calm     86 % 0 mm 0.0 W/m2 CLR
06:52 -14.7 °C -15.9 °C 34669.3 hPa Calm     86 % 0 mm 0.0 W/m2 CLR
06:57 -14.4 °C -15.5 °C 34669.3 hPa Calm     87 % 0 mm 0.0 W/m2 CLR
07:02 -14.4 °C -15.5 °C 34669.3 hPa Calm     87 % 0 mm 0.0 W/m2 CLR
07:07 -14.4 °C -15.5 °C 34669.3 hPa Calm     87 % 0 mm 0.0 W/m2 CLR
07:12 -14.4 °C -15.4 °C 34669.3 hPa Calm     88 % 0 mm 0.0 W/m2 CLR
07:17 -14.4 °C -15.4 °C 34669.3 hPa Calm     88 % 0 mm 0.0 W/m2 CLR
07:22 -14.7 °C -15.7 °C 34669.3 hPa Calm     88 % 0 mm 0.0 W/m2 CLR
07:27 -14.7 °C -15.7 °C 34669.3 hPa Calm     88 % 0 mm 0.0 W/m2 CLR
07:32 -14.7 °C -15.6 °C 34669.3 hPa Calm     89 % 0 mm 0.0 W/m2 CLR
07:37 -14.7 °C -15.7 °C 34669.3 hPa Calm     88 % 0 mm 0.0 W/m2 CLR
07:42 -15 °C -15.9 °C 34669.3 hPa Calm     89 % 0 mm 0.0 W/m2 CLR
07:43 -15 °C -15.9 °C 34669.3 hPa Calm     89 % 0 mm 0.0 W/m2 CLR
07:48 -15 °C -15.9 °C 34682.8 hPa Calm     89 % 0 mm 0.0 W/m2 CLR
07:53 -15 °C -16 °C 34669.3 hPa Calm     88 % 0 mm 0.0 W/m2 CLR
07:58 -15 °C -16 °C 34682.8 hPa Calm     88 % 0 mm 0.0 W/m2 CLR
08:03 -15 °C -16 °C 34682.8 hPa Calm     88 % 0 mm 0.0 W/m2 OVC
08:08 -14.7 °C -15.6 °C 34682.8 hPa Calm     89 % 0 mm 5.0 W/m2 OVC
08:13 -14.7 °C -15.6 °C 34682.8 hPa Calm     89 % 0 mm 9.0 W/m2 BKN
08:18 -15 °C -16 °C 34682.8 hPa Calm     88 % 0 mm 11.0 W/m2 BKN
08:23 -14.4 °C -15.3 °C 34682.8 hPa Calm     89 % 0 mm 14.0 W/m2 BKN
08:28 -14.4 °C -15.3 °C 34682.8 hPa Calm     89 % 0 mm 18.0 W/m2 BKN
08:33 -14.7 °C -15.6 °C 34693 hPa Calm     89 % 0 mm 21.0 W/m2 BKN
08:38 -14.7 °C -15.7 °C 34693 hPa Calm     88 % 0 mm 26.0 W/m2 BKN
08:43 -14.7 °C -15.7 °C 34693 hPa Calm     88 % 0 mm 37.0 W/m2 BKN
08:48 -14.4 °C -15.5 °C 34693 hPa Calm     87 % 0 mm 42.0 W/m2 BKN
08:53 -14.4 °C -15.4 °C 34693 hPa Calm     88 % 0 mm 62.0 W/m2 SCT
08:58 -14.4 °C -15.4 °C 34693 hPa Calm     88 % 0 mm 74.0 W/m2 FEW
09:03 -14.4 °C -15.4 °C 34693 hPa Calm     88 % 0 mm 83.0 W/m2 FEW
09:08 -14.4 °C -15.5 °C 34703.1 hPa Calm     87 % 0 mm 104.0 W/m2 FEW
09:13 -14.1 °C -15.2 °C 34703.1 hPa Calm     87 % 0 mm 116.0 W/m2 CLR
09:18 -13.8 °C -14.9 °C 34703.1 hPa Calm     86 % 0 mm 135.0 W/m2 CLR
09:23 -13.4 °C -14.8 °C 34703.1 hPa Calm     85 % 0 mm 93.0 W/m2 CLR
09:28 -13.4 °C -14.9 °C 34703.1 hPa Calm     84 % 0 mm 172.0 W/m2 CLR
09:38 -13.2 °C -14.8 °C 34703.1 hPa Calm     82 % 0 mm 206.0 W/m2 CLR
09:43 -12.8 °C -14.7 °C 34716.7 hPa Calm     80 % 0 mm 223.0 W/m2 CLR
09:48 -12.8 °C -14.8 °C 34716.7 hPa Calm     79 % 0 mm 241.0 W/m2 CLR
09:53 -12.8 °C -14.8 °C 34716.7 hPa Calm     79 % 0 mm 255.0 W/m2 CLR
09:58 -12.6 °C -14.6 °C 34703.1 hPa Calm     78 % 0 mm 269.0 W/m2 CLR
10:03 -12.6 °C -14.6 °C 34703.1 hPa Calm     78 % 0 mm 285.0 W/m2 CLR
10:08 -11.9 °C -14.3 °C 34703.1 hPa Calm     75 % 0 mm 299.0 W/m2 CLR
10:13 -11.6 °C -14.2 °C 34716.7 hPa Calm     73 % 0 mm 316.0 W/m2 CLR
10:14 -11.6 °C -14.2 °C 34716.7 hPa Calm     73 % 0 mm 316.0 W/m2 CLR
10:19 -11.3 °C -13.9 °C 34716.7 hPa Calm     73 % 0 mm 329.0 W/m2 CLR
10:24 -10.7 °C -13.3 °C 34703.1 hPa Calm     73 % 0 mm 343.0 W/m2 CLR
10:29 -10.4 °C -13.1 °C 34703.1 hPa Calm     72 % 0 mm 357.0 W/m2 CLR
10:34 -10.1 °C -12.9 °C 34716.7 hPa Calm     71 % 0 mm 373.0 W/m2 CLR
10:39 -10.1 °C -13.1 °C 34716.7 hPa Calm     70 % 0 mm 387.0 W/m2 CLR
10:44 -10.1 °C -13.2 °C 34703.1 hPa Calm     69 % 0 mm 399.0 W/m2 CLR
10:49 -9.8 °C -12.9 °C 34716.7 hPa Calm     69 % 0 mm 410.0 W/m2 CLR
10:54 -9.4 °C -12.4 °C 34703.1 hPa Calm     70 % 0 mm 424.0 W/m2 CLR
10:59 -9.4 °C -12.6 °C 34703.1 hPa Calm     69 % 0 mm 434.0 W/m2 CLR
11:04 -9.1 °C -12.8 °C 34703.1 hPa Calm     65 % 0 mm 448.0 W/m2 CLR
11:09 -8.8 °C -13 °C 34703.1 hPa Calm     61 % 0 mm 457.0 W/m2 CLR
11:14 -8.5 °C -12.7 °C 34703.1 hPa Calm     61 % 0 mm 471.0 W/m2 CLR
11:19 -8.5 °C -12.7 °C 34703.1 hPa Calm     61 % 0 mm 482.0 W/m2 CLR
11:24 -8.2 °C -12.7 °C 34703.1 hPa Calm     59 % 0 mm 494.0 W/m2 CLR
11:29 -8.2 °C -12.6 °C 34703.1 hPa Calm     60 % 0 mm 504.0 W/m2 CLR
11:34 -7.9 °C -12.3 °C 34703.1 hPa Calm     60 % 0 mm 513.0 W/m2 CLR
11:39 -7.6 °C -12 °C 34703.1 hPa NNW 9 km/h 9 km/h 60 % 0 mm 524.0 W/m2 CLR
11:44 -7.6 °C -12 °C 34693 hPa Calm     60 % 0 mm 533.0 W/m2 CLR
11:49 -7.3 °C -11.6 °C 34703.1 hPa Calm     61 % 0 mm 543.0 W/m2 CLR
11:54 -7.3 °C -11.7 °C 34693 hPa North 12.9 km/h 12.9 km/h 60 % 0 mm 550.0 W/m2 CLR
11:59 -7 °C -11.4 °C 34693 hPa NNW 9 km/h 9 km/h 60 % 0 mm 559.0 W/m2 CLR
12:04 -7 °C -11.4 °C 34703.1 hPa NW 9 km/h 9 km/h 60 % 0 mm 568.0 W/m2 CLR
12:09 -6.7 °C -11.3 °C 34693 hPa NNW 20.9 km/h 20.9 km/h 59 % 0 mm 577.0 W/m2 CLR
12:14 -6.7 °C -11.4 °C 34693 hPa Calm     58 % 0 mm 585.0 W/m2 CLR
12:19 -6.7 °C -11.6 °C 34693 hPa North 15 km/h 15 km/h 57 % 0 mm 594.0 W/m2 CLR
12:24 -6.3 °C -11.4 °C 34693 hPa NNE 10.3 km/h 10.3 km/h 56 % 0 mm 598.0 W/m2 CLR
12:29 -6.3 °C -11.4 °C 34693 hPa NNW 9 km/h 9 km/h 56 % 0 mm 606.0 W/m2 CLR
12:34 -6.3 °C -11.1 °C 34693 hPa Calm     58 % 0 mm 613.0 W/m2 CLR
12:39 -6.1 °C -11.1 °C 34693 hPa NNW 7.7 km/h 7.7 km/h 56 % 0 mm 617.0 W/m2 CLR
12:44 -6.1 °C -11.1 °C 34693 hPa NW 6 km/h 6 km/h 56 % 0 mm 622.0 W/m2 CLR
12:49 -6.1 °C -11.1 °C 34693 hPa North 10.3 km/h 10.3 km/h 56 % 0 mm 628.0 W/m2 CLR
12:59 -5.7 °C -11 °C 34693 hPa NW 9 km/h 9 km/h 55 % 0 mm 636.0 W/m2 CLR
13:04 -5.7 °C -11 °C 34693 hPa WNW 9 km/h   55 % 0 mm 640.0 W/m2 CLR
13:14 -5.4 °C -10.7 °C 34693 hPa Calm     55 % 0 mm 645.0 W/m2 CLR
13:19 -5.4 °C -10.6 °C 34693 hPa NNW 15 km/h 15 km/h 56 % 0 mm 649.0 W/m2 CLR
13:24 -5.4 °C -10.6 °C 34682.8 hPa NW 9 km/h 9 km/h 56 % 0 mm 647.0 W/m2 CLR
13:29 -5.4 °C -10.4 °C 34682.8 hPa NNW 9 km/h 9 km/h 57 % 0 mm 645.0 W/m2 CLR
13:34 -5.1 °C -9.9 °C 34682.8 hPa NNW 9 km/h 9 km/h 58 % 0 mm 647.0 W/m2 CLR
13:39 -5.1 °C -9.9 °C 34682.8 hPa NW 11.9 km/h 11.9 km/h 58 % 0 mm 647.0 W/m2 CLR
13:44 -4.8 °C -9.8 °C 34682.8 hPa NW 9 km/h 9 km/h 57 % 0 mm 650.0 W/m2 CLR
13:49 -4.8 °C -9.8 °C 34669.3 hPa NNW 9 km/h 9 km/h 57 % 0 mm 652.0 W/m2 CLR
13:54 -4.5 °C -9.6 °C 34669.3 hPa NNW 20.9 km/h 20.9 km/h 57 % 0 mm 650.0 W/m2 CLR
13:59 -4.8 °C -9.9 °C 34669.3 hPa NNW 6 km/h   56 % 0 mm 649.0 W/m2 CLR
14:04 -4.5 °C -9.7 °C 34669.3 hPa WNW 9 km/h   56 % 0 mm 645.0 W/m2 CLR
14:09 -4.5 °C -9.7 °C 34669.3 hPa NNW 15 km/h 15 km/h 56 % 0 mm 645.0 W/m2 CLR
14:14 -4.5 °C -9.8 °C 34659.1 hPa NW 15 km/h 15 km/h 55 % 0 mm 642.0 W/m2 CLR
14:19 -4.5 °C -9.8 °C 34659.1 hPa NW 15 km/h 15 km/h 55 % 0 mm 642.0 W/m2 CLR
14:24 -4.2 °C -9.7 °C 34659.1 hPa NNW 11.9 km/h 11.9 km/h 54 % 0 mm 636.0 W/m2 CLR
14:29 -4.2 °C -9.7 °C 34659.1 hPa NNW 20.9 km/h 20.9 km/h 54 % 0 mm 635.0 W/m2 CLR
14:34 -4.2 °C -9.9 °C 34645.6 hPa NNW 15 km/h 15 km/h 53 % 0 mm 629.0 W/m2 CLR
14:39 -4.2 °C -9.9 °C 34645.6 hPa WNW 15 km/h 15 km/h 53 % 0 mm 626.0 W/m2 CLR
14:44 -4.2 °C -9.9 °C 34645.6 hPa NNW 9 km/h 9 km/h 53 % 0 mm 622.0 W/m2 CLR
14:55 -3.9 °C -9.9 °C 34645.6 hPa NW 3.1 km/h 3.1 km/h 51 % 0 mm 613.0 W/m2 CLR
15:00 -3.9 °C -9.9 °C 34645.6 hPa NNW 20.9 km/h 20.9 km/h 51 % 0 mm 606.0 W/m2 CLR
15:05 -3.9 °C -10.2 °C 34635.4 hPa WNW 9 km/h 9 km/h 49 % 0 mm 601.0 W/m2 CLR
15:10 -3.9 °C -10.2 °C 34635.4 hPa NW 15.6 km/h 15.6 km/h 49 % 0 mm 594.0 W/m2 CLR
15:15 -3.6 °C -10.3 °C 34635.4 hPa NW 20.9 km/h 20.9 km/h 47 % 0 mm 589.0 W/m2 CLR
15:20 -3.6 °C -10.2 °C 34635.4 hPa NW 15.6 km/h 15.6 km/h 48 % 0 mm 582.0 W/m2 CLR
15:25 -3.6 °C -10.3 °C 34635.4 hPa NW 20.9 km/h 20.9 km/h 47 % 0 mm 571.0 W/m2 CLR
15:30 -3.6 °C -10.7 °C 34625.2 hPa NW 26.9 km/h 26.9 km/h 45 % 0 mm 561.0 W/m2 CLR
15:35 -3.3 °C -10.4 °C 34625.2 hPa NNW 20.9 km/h 20.9 km/h 45 % 0 mm 555.0 W/m2 CLR
15:40 -3.3 °C -10.8 °C 34625.2 hPa NW 20.9 km/h 20.9 km/h 43 % 0 mm 545.0 W/m2 CLR
15:45 -3.3 °C -11.2 °C 34625.2 hPa NW 20.9 km/h 20.9 km/h 41 % 0 mm 538.0 W/m2 CLR
15:50 -3.3 °C -11.4 °C 34625.2 hPa NW 26.9 km/h 26.9 km/h 40 % 0 mm 531.0 W/m2 CLR
15:55 -2.9 °C -11.3 °C 34625.2 hPa NNW 26.9 km/h 26.9 km/h 39 % 0 mm 519.0 W/m2 CLR
16:00 -2.9 °C -11.8 °C 34625.2 hPa NW 23.8 km/h 23.8 km/h 37 % 0 mm 510.0 W/m2 CLR
16:01 -2.9 °C -11.6 °C 34625.2 hPa NW 23.8 km/h 23.8 km/h 38 % 0 mm 506.0 W/m2 CLR
16:06 -2.9 °C -11.8 °C 34625.2 hPa NNW 15 km/h 15 km/h 37 % 0 mm 494.0 W/m2 CLR
16:11 -2.9 °C -11.3 °C 34625.2 hPa North 20.8 km/h 20.8 km/h 39 % 0 mm 483.0 W/m2 CLR
16:16 -2.9 °C -11.3 °C 34611.7 hPa NNE 15 km/h 15 km/h 39 % 0 mm 471.0 W/m2 CLR
16:21 -2.7 °C -10.9 °C 34611.7 hPa Calm     40 % 0 mm 459.0 W/m2 CLR
16:26 -2.7 °C -11.8 °C 34611.7 hPa NW 11.9 km/h 11.9 km/h 36 % 0 mm 450.0 W/m2 CLR
16:36 -2.9 °C -11.8 °C 34611.7 hPa NW 11.9 km/h 11.9 km/h 37 % 0 mm 422.0 W/m2 CLR
16:41 -2.7 °C -11.1 °C 34611.7 hPa NNW 29.8 km/h 29.8 km/h 39 % 0 mm 410.0 W/m2 CLR
16:46 -2.9 °C -11.2 °C 34611.7 hPa NW 9 km/h 9 km/h 40 % 0 mm 397.0 W/m2 CLR
16:51 -2.9 °C -11.3 °C 34611.7 hPa Calm     39 % 0 mm 385.0 W/m2 CLR
17:01 -2.7 °C -11.8 °C 34611.7 hPa NW 12.9 km/h 12.9 km/h 36 % 0 mm 359.0 W/m2 CLR
17:06 -2.7 °C -11.8 °C 34611.7 hPa NW 9 km/h 9 km/h 36 % 0 mm 345.0 W/m2 CLR
17:11 -2.7 °C -12 °C 34611.7 hPa NW 11.9 km/h 11.9 km/h 35 % 0 mm 332.0 W/m2 CLR
17:16 -2.7 °C -11.8 °C 34611.7 hPa Calm     36 % 0 mm 315.0 W/m2 CLR
17:21 -2.9 °C -11.8 °C 34611.7 hPa North 15 km/h 15 km/h 37 % 0 mm 302.0 W/m2 CLR
17:26 -2.9 °C -11.6 °C 34611.7 hPa NW 17.9 km/h 17.9 km/h 38 % 0 mm 288.0 W/m2 CLR
17:31 -2.9 °C -11.6 °C 34611.7 hPa NNW 9 km/h 9 km/h 38 % 0 mm 272.0 W/m2 CLR
17:36 -2.9 °C -11.3 °C 34611.7 hPa NNW 9 km/h 9 km/h 39 % 0 mm 255.0 W/m2 CLR
17:41 -2.9 °C -10.9 °C 34611.7 hPa North 12.9 km/h 12.9 km/h 41 % 0 mm 239.0 W/m2 CLR
17:46 -3.3 °C -11 °C 34625.2 hPa NNE 20.9 km/h 20.9 km/h 42 % 0 mm 223.0 W/m2 CLR
17:51 -3.3 °C -10.8 °C 34625.2 hPa NNW 9 km/h 9 km/h 43 % 0 mm 207.0 W/m2 CLR
17:56 -3.6 °C -11.1 °C 34625.2 hPa Calm     43 % 0 mm 190.0 W/m2 CLR
18:06 -3.6 °C -10.9 °C 34625.2 hPa NE 15.6 km/h 15.6 km/h 44 % 0 mm 158.0 W/m2 CLR
18:11 -3.9 °C -11 °C 34625.2 hPa NE 9 km/h 9 km/h 45 % 0 mm 142.0 W/m2 CLR
18:21 -4.2 °C -11.4 °C 34625.2 hPa Calm     44 % 0 mm 109.0 W/m2 CLR
18:26 -4.5 °C -11.7 °C 34625.2 hPa Calm     44 % 0 mm 95.0 W/m2 CLR
18:36 -4.8 °C -11.6 °C 34625.2 hPa Calm     46 % 0 mm 70.0 W/m2 FEW
18:41 -5.1 °C -11.9 °C 34625.2 hPa Calm     46 % 0 mm 51.0 W/m2 SCT
18:46 -5.4 °C -12 °C 34625.2 hPa Calm     47 % 0 mm 44.0 W/m2 SCT
18:51 -5.7 °C -12.3 °C 34625.2 hPa NNE 3.1 km/h   47 % 0 mm 35.0 W/m2 BKN
18:56 -6.1 °C -12.4 °C 34625.2 hPa Calm     48 % 0 mm 26.0 W/m2 BKN
19:01 -6.3 °C -12.7 °C 34625.2 hPa Calm     48 % 0 mm 19.0 W/m2 BKN
19:06 -6.7 °C -12.8 °C 34635.4 hPa Calm     49 % 0 mm 14.0 W/m2 BKN
19:11 -7 °C -12.9 °C 34635.4 hPa Calm     50 % 0 mm 12.0 W/m2 BKN
19:16 -7 °C -12.7 °C 34635.4 hPa Calm     51 % 0 mm 9.0 W/m2 BKN
19:21 -7.3 °C -12.9 °C 34635.4 hPa Calm     52 % 0 mm 5.0 W/m2 OVC
19:22 -7.3 °C -12.9 °C 34635.4 hPa Calm     52 % 0 mm 5.0 W/m2 OVC
19:27 -7.6 °C -13 °C 34635.4 hPa Calm     53 % 0 mm 0.0 W/m2 OVC
19:32 -7.6 °C -12.7 °C 34635.4 hPa NNE 9 km/h 9 km/h 55 % 0 mm 0.0 W/m2 OVC
19:42 -7.6 °C -12.4 °C 34645.6 hPa NE 5.1 km/h   57 % 0 mm 0.0 W/m2 CLR
19:47 -7.9 °C -12.6 °C 34645.6 hPa NNE 6 km/h 6 km/h 58 % 0 mm 0.0 W/m2 CLR
19:57 -8.2 °C -12.8 °C 34645.6 hPa Calm     58 % 0 mm 0.0 W/m2 CLR
20:07 -8.2 °C -12.6 °C 34645.6 hPa Calm     60 % 0 mm 0.0 W/m2 CLR
20:12 -8.5 °C -13 °C 34645.6 hPa Calm     59 % 0 mm 0.0 W/m2 CLR
20:17 -8.5 °C -12.8 °C 34659.1 hPa Calm     60 % 0 mm 0.0 W/m2 CLR
20:22 -8.8 °C -13 °C 34659.1 hPa Calm     61 % 0 mm 0.0 W/m2 CLR
20:27 -8.8 °C -12.7 °C 34659.1 hPa Calm     63 % 0 mm 0.0 W/m2 CLR
20:32 -8.8 °C -12.6 °C 34659.1 hPa ENE 9 km/h 9 km/h 64 % 0 mm 0.0 W/m2 CLR
20:37 -9.1 °C -13 °C 34659.1 hPa Calm     63 % 0 mm 0.0 W/m2 CLR
20:42 -9.4 °C -13.6 °C 34659.1 hPa Calm     61 % 0 mm 0.0 W/m2 CLR
20:47 -9.4 °C -13.7 °C 34659.1 hPa Calm     60 % 0 mm 0.0 W/m2 CLR
20:52 -9.4 °C -13.6 °C 34659.1 hPa Calm     61 % 0 mm 0.0 W/m2 CLR
20:57 -9.4 °C -13.6 °C 34669.3 hPa Calm     61 % 0 mm 0.0 W/m2 CLR
21:02 -9.4 °C -13.4 °C 34669.3 hPa Calm     62 % 0 mm 0.0 W/m2 CLR
21:07 -9.4 °C -13.3 °C 34669.3 hPa Calm     63 % 0 mm 0.0 W/m2 CLR
21:12 -9.4 °C -13.2 °C 34669.3 hPa Calm     64 % 0 mm 0.0 W/m2 CLR
21:17 -9.4 °C -13.1 °C 34669.3 hPa Calm     65 % 0 mm 0.0 W/m2 CLR
21:22 -9.4 °C -12.7 °C 34682.8 hPa Calm     68 % 0 mm 0.0 W/m2 CLR
21:27 -9.4 °C -12.8 °C 34682.8 hPa Calm     67 % 0 mm 0.0 W/m2 CLR
21:32 -9.4 °C -12.8 °C 34682.8 hPa Calm     67 % 0 mm 0.0 W/m2 CLR
21:37 -9.8 °C -13 °C 34682.8 hPa Calm     68 % 0 mm 0.0 W/m2 CLR
21:42 -9.8 °C -12.6 °C 34682.8 hPa Calm     72 % 0 mm 0.0 W/m2 CLR
21:47 -10.1 °C -12.8 °C 34682.8 hPa NNW 6 km/h 6 km/h 72 % 0 mm 0.0 W/m2 CLR
21:52 -10.1 °C -13.3 °C 34682.8 hPa Calm     68 % 0 mm 0.0 W/m2 CLR
21:57 -10.4 °C -13.6 °C 34682.8 hPa Calm     68 % 0 mm 0.0 W/m2 CLR
22:07 -10.7 °C -13.5 °C 34693 hPa Calm     71 % 0 mm 0.0 W/m2 CLR
22:12 -10.7 °C -13.4 °C 34693 hPa Calm     72 % 0 mm 0.0 W/m2 CLR
22:17 -10.7 °C -13.2 °C 34693 hPa Calm     74 % 0 mm 0.0 W/m2 CLR
22:22 -10.7 °C -13.4 °C 34693 hPa Calm     72 % 0 mm 0.0 W/m2 CLR
22:27 -10.7 °C -13.5 °C 34693 hPa Calm     71 % 0 mm 0.0 W/m2 CLR
22:32 -11 °C -13.8 °C 34693 hPa Calm     71 % 0 mm 0.0 W/m2 CLR
22:37 -10.7 °C -13.4 °C 34693 hPa Calm     72 % 0 mm 0.0 W/m2 CLR
22:42 -10.7 °C -13.3 °C 34693 hPa Calm     73 % 0 mm 0.0 W/m2 CLR
22:47 -10.4 °C -13.1 °C 34693 hPa Calm     72 % 0 mm 0.0 W/m2 CLR
22:52 -10.4 °C -12.9 °C 34693 hPa Calm     74 % 0 mm 0.0 W/m2 CLR
22:57 -10.7 °C -13.3 °C 34693 hPa Calm     73 % 0 mm 0.0 W/m2 CLR
23:02 -10.4 °C -12.9 °C 34703.1 hPa Calm     74 % 0 mm 0.0 W/m2 CLR
23:07 -10.4 °C -13 °C 34703.1 hPa Calm     73 % 0 mm 0.0 W/m2 CLR
23:12 -10.7 °C -13.2 °C 34703.1 hPa Calm     74 % 0 mm 0.0 W/m2 CLR
23:17 -10.7 °C -13.2 °C 34703.1 hPa Calm     74 % 0 mm 0.0 W/m2 CLR
23:22 -10.7 °C -13.2 °C 34703.1 hPa Calm     74 % 0 mm 0.0 W/m2 CLR
23:27 -10.7 °C -13.1 °C 34703.1 hPa Calm     75 % 0 mm 0.0 W/m2 CLR
23:32 -10.7 °C -12.9 °C 34716.7 hPa Calm     76 % 0 mm 0.0 W/m2 CLR
23:37 -10.7 °C -12.9 °C 34716.7 hPa Calm     76 % 0 mm 0.0 W/m2 CLR
23:42 -10.7 °C -12.9 °C 34716.7 hPa Calm     76 % 0 mm 0.0 W/m2 CLR
23:47 -10.7 °C -12.9 °C 34716.7 hPa Calm     76 % 0 mm 0.0 W/m2 CLR
23:52 -11 °C -13.1 °C 34716.7 hPa Calm     78 % 0 mm 0.0 W/m2 CLR
23:57 -11 °C -13.1 °C 34716.7 hPa Calm     78 % 0 mm 0.0 W/m2 CLR
Lo Temps de Massalio
Compliments of Weather Underground - 1.25 mb